Time;durP1;ratioP1;P1;durP2;ratioP2;P2;SDS_P1;SDS_P2;PMS_P1;PMS_P2;Temp;Humidity;BMP_temperature;BMP_pressure;BME280_temperature;BME280_humidity;BME280_pressure;Samples;Min_cycle;Max_cycle;Signal;HPM_P1;HPM_P2
2022/06/01 00:00:22;;;;;;;6.43;2.20;;;;;;;;;;5050646;28;20024;-73
2022/06/01 00:02:47;;;;;;;7.95;2.25;;;;;;;;;;5050985;28;20025;-73
2022/06/01 00:05:13;;;;;;;3.95;1.98;;;;;;;;;;5050761;28;20024;-73
2022/06/01 00:07:38;;;;;;;6.00;2.00;;;;;;;;;;5050469;28;20025;-73
2022/06/01 00:10:05;;;;;;;5.88;2.17;;;;;;;;;;5050344;28;20032;-73
2022/06/01 00:12:31;;;;;;;4.45;2.05;;;;;;;;;;5050548;28;20021;-73
2022/06/01 00:14:57;;;;;;;4.95;2.13;;;;;;;;;;5050416;28;20182;-73
2022/06/01 00:17:22;;;;;;;5.70;2.03;;;;;;;;;;5050328;28;20404;-73
2022/06/01 00:19:47;;;;;;;4.43;2.10;;;;;;;;;;5050166;28;20025;-73
2022/06/01 00:22:14;;;;;;;4.85;1.80;;;;;;;;;;5050094;28;20534;-73
2022/06/01 00:24:40;;;;;;;4.47;1.90;;;;;;;;;;5050897;28;20036;-71
2022/06/01 00:27:06;;;;;;;5.38;2.20;;;;;;;;;;5050287;28;20033;-73
2022/06/01 00:29:32;;;;;;;8.43;2.20;;;;;;;;;;5050137;28;20024;-74
2022/06/01 00:31:57;;;;;;;4.70;1.83;;;;;;;;;;5050416;28;20019;-74
2022/06/01 00:34:22;;;;;;;3.65;1.60;;;;;;;;;;5050201;28;20024;-73
2022/06/01 00:36:48;;;;;;;4.97;1.90;;;;;;;;;;5050076;28;20039;-72
2022/06/01 00:39:14;;;;;;;4.10;2.00;;;;;;;;;;5050229;28;20031;-73
2022/06/01 00:41:40;;;;;;;4.43;1.73;;;;;;;;;;5050338;28;20020;-69
2022/06/01 00:44:05;;;;;;;2.97;1.80;;;;;;;;;;5050079;28;20028;-71
2022/06/01 00:46:32;;;;;;;6.65;1.95;;;;;;;;;;5049921;28;20367;-73
2022/06/01 00:49:03;;;;;;;6.72;1.95;;;;;;;;;;5049920;28;20526;-73
2022/06/01 00:51:29;;;;;;;3.22;1.77;;;;;;;;;;5049199;28;20112;-72
2022/06/01 00:53:56;;;;;;;4.85;1.77;;;;;;;;;;5049888;28;20473;-72
2022/06/01 00:56:47;;;;;;;5.32;1.60;;;;;;;;;;5050065;28;20159;-72
2022/06/01 00:59:17;;;;;;;4.82;1.52;;;;;;;;;;5044627;28;20040;-71
2022/06/01 01:01:43;;;;;;;;;;;;;;;;;;5050374;28;20029;-70
2022/06/01 01:04:10;;;;;;;4.93;1.60;;;;;;;;;;5048629;28;19919;-70
2022/06/01 01:06:40;;;;;;;5.07;1.60;;;;;;;;;;5049739;28;20051;-73
2022/06/01 01:09:06;;;;;;;;;;;;;;;;;;5049948;28;20115;-69
2022/06/01 01:11:44;;;;;;;3.58;1.45;;;;;;;;;;5048386;28;19913;-70
2022/06/01 01:14:11;;;;;;;4.25;1.40;;;;;;;;;;5050039;28;20060;-73
2022/06/01 01:16:37;;;;;;;5.03;1.65;;;;;;;;;;5048523;28;20029;-71
2022/06/01 01:19:13;;;;;;;5.18;1.60;;;;;;;;;;5050018;28;20027;-73
2022/06/01 01:21:56;;;;;;;4.65;1.40;;;;;;;;;;5049243;28;20525;-72
2022/06/01 01:24:25;;;;;;;5.82;1.60;;;;;;;;;;5049860;28;20029;-72
2022/06/01 01:26:52;;;;;;;8.75;1.80;;;;;;;;;;5049536;28;20029;-71
2022/06/01 01:29:40;;;;;;;3.97;1.60;;;;;;;;;;5049347;28;20024;-73
2022/06/01 01:32:07;;;;;;;4.45;1.52;;;;;;;;;;5049583;28;20032;-72
2022/06/01 01:34:34;;;;;;;5.22;1.65;;;;;;;;;;5049616;28;20029;-73
2022/06/01 01:37:04;;;;;;;6.25;1.60;;;;;;;;;;5049596;28;20086;-73
2022/06/01 01:39:34;;;;;;;4.55;1.60;;;;;;;;;;5049466;28;20476;-72
2022/06/01 01:41:59;;;;;;;8.35;1.70;;;;;;;;;;5049652;28;20025;-75
2022/06/01 01:44:37;;;;;;;4.63;1.50;;;;;;;;;;5049779;28;20021;-72
2022/06/01 01:47:03;;;;;;;6.00;1.50;;;;;;;;;;5049505;28;20021;-72
2022/06/01 01:49:32;;;;;;;4.90;1.50;;;;;;;;;;5049344;28;20128;-70
2022/06/01 01:52:02;;;;;;;5.95;1.60;;;;;;;;;;5049492;28;20370;-74
2022/06/01 01:55:01;;;;;;;6.53;1.88;;;;;;;;;;5049665;28;20497;-73
2022/06/01 01:57:41;;;;;;;3.80;1.58;;;;;;;;;;5049433;28;20493;-74
2022/06/01 02:00:18;;;;;;;4.53;1.90;;;;;;;;;;5049303;28;20028;-72
2022/06/01 02:03:02;;;;;;;4.50;1.60;;;;;;;;;;5049701;28;20029;-75
2022/06/01 02:06:07;;;;;;;4.72;1.67;;;;;;;;;;5053112;28;20028;-72
2022/06/01 02:08:51;;;;;;;4.38;1.50;;;;;;;;;;5053032;28;20027;-72
2022/06/01 02:14:37;;;;;;;6.45;1.60;;;;;;;;;;5053102;28;20511;-72
2022/06/01 02:17:09;;;;;;;5.70;1.58;;;;;;;;;;5052648;28;20495;-73
2022/06/01 02:19:52;;;;;;;3.53;1.50;;;;;;;;;;5052571;28;20107;-73
2022/06/01 02:22:17;;;;;;;5.22;1.60;;;;;;;;;;5052443;28;20049;-73
2022/06/01 02:24:45;;;;;;;8.00;1.70;;;;;;;;;;5052931;28;20413;-71
2022/06/01 02:27:12;;;;;;;6.68;1.60;;;;;;;;;;5052487;28;20166;-74
2022/06/01 02:29:43;;;;;;;6.72;1.60;;;;;;;;;;5052442;28;20029;-75
2022/06/01 02:32:11;;;;;;;4.45;1.70;;;;;;;;;;5052931;28;20058;-74
2022/06/01 02:34:38;;;;;;;3.70;1.67;;;;;;;;;;5052405;28;20400;-73
2022/06/01 02:37:05;;;;;;;6.47;1.73;;;;;;;;;;5052468;28;20025;-72
2022/06/01 02:39:33;;;;;;;6.50;1.92;;;;;;;;;;5052405;28;20491;-71
2022/06/01 02:42:25;;;;;;;4.20;1.60;;;;;;;;;;5052288;28;20032;-72
2022/06/01 02:45:06;;;;;;;9.07;1.73;;;;;;;;;;5052146;28;20100;-71
2022/06/01 02:47:35;;;;;;;4.03;1.80;;;;;;;;;;5052278;28;20385;-72
2022/06/01 02:50:01;;;;;;;6.90;1.70;;;;;;;;;;5052135;28;20120;-71
2022/06/01 02:52:27;;;;;;;4.82;1.70;;;;;;;;;;5052137;28;20111;-72
2022/06/01 02:54:53;;;;;;;6.05;1.70;;;;;;;;;;5052027;28;20029;-69
2022/06/01 02:57:19;;;;;;;7.43;1.98;;;;;;;;;;5051985;28;20028;-70
2022/06/01 02:59:46;;;;;;;5.72;1.90;;;;;;;;;;5051750;28;20602;-67
2022/06/01 03:02:11;;;;;;;5.82;1.85;;;;;;;;;;5051876;28;20500;-70
2022/06/01 03:04:39;;;;;;;5.07;1.85;;;;;;;;;;5050664;28;20032;-72
2022/06/01 03:07:05;;;;;;;6.07;1.70;;;;;;;;;;5051486;28;20033;-69
2022/06/01 03:09:32;;;;;;;6.90;1.77;;;;;;;;;;5051625;28;20496;-71
2022/06/01 03:11:57;;;;;;;4.82;1.77;;;;;;;;;;5051747;28;20025;-68
2022/06/01 03:14:23;;;;;;;7.55;1.90;;;;;;;;;;5050912;28;20100;-73
2022/06/01 03:16:48;;;;;;;6.43;1.70;;;;;;;;;;5051918;28;20032;-70
2022/06/01 03:19:13;;;;;;;6.10;1.70;;;;;;;;;;5051518;28;20446;-73
2022/06/01 03:21:40;;;;;;;4.28;1.90;;;;;;;;;;5051400;28;20049;-74
2022/06/01 03:24:06;;;;;;;7.00;1.90;;;;;;;;;;5051669;28;20036;-73
2022/06/01 03:26:32;;;;;;;5.40;1.80;;;;;;;;;;5051345;28;20032;-73
2022/06/01 03:28:57;;;;;;;6.82;1.75;;;;;;;;;;5051327;28;20412;-73
2022/06/01 03:31:23;;;;;;;4.50;1.52;;;;;;;;;;5051212;28;20092;-72
2022/06/01 03:33:48;;;;;;;4.30;1.90;;;;;;;;;;5051454;28;20036;-74
2022/06/01 03:36:14;;;;;;;4.55;1.73;;;;;;;;;;5051358;28;20024;-73
2022/06/01 03:38:39;;;;;;;5.75;1.90;;;;;;;;;;5051558;28;20457;-74
2022/06/01 03:41:05;;;;;;;4.15;1.90;;;;;;;;;;5051037;28;20033;-74
2022/06/01 03:45:55;;;;;;;4.93;1.73;;;;;;;;;;5051493;28;20072;-74
2022/06/01 03:46:16;;;;;;;8.52;1.90;;;;;;;;;;5050945;28;20033;-73
2022/06/01 03:48:41;;;;;;;8.50;1.90;;;;;;;;;;5050931;28;20033;-74
2022/06/01 03:51:06;;;;;;;8.25;1.90;;;;;;;;;;5050492;28;20066;-74
2022/06/01 03:53:32;;;;;;;4.00;1.90;;;;;;;;;;5050997;28;20021;-74
2022/06/01 03:55:57;;;;;;;5.50;1.88;;;;;;;;;;5051132;28;20472;-72
2022/06/01 03:58:23;;;;;;;6.38;1.80;;;;;;;;;;5051063;28;20163;-73
2022/06/01 04:00:49;;;;;;;5.82;1.92;;;;;;;;;;5051048;28;20024;-75
2022/06/01 04:03:16;;;;;;;4.45;2.05;;;;;;;;;;5050710;28;20021;-73
2022/06/01 04:05:41;;;;;;;6.25;1.70;;;;;;;;;;5050546;28;20033;-73
2022/06/01 04:08:07;;;;;;;6.00;1.80;;;;;;;;;;5050547;28;20029;-73
2022/06/01 04:10:34;;;;;;;6.20;2.33;;;;;;;;;;5050585;28;20032;-73
2022/06/01 04:13:00;;;;;;;6.25;1.85;;;;;;;;;;5050679;28;20021;-73
2022/06/01 04:15:26;;;;;;;5.25;2.00;;;;;;;;;;5050568;28;20396;-74
2022/06/01 04:17:51;;;;;;;4.70;1.90;;;;;;;;;;5050596;28;20438;-74
2022/06/01 04:20:17;;;;;;;4.63;1.80;;;;;;;;;;5050311;28;20139;-73
2022/06/01 04:22:43;;;;;;;4.90;1.85;;;;;;;;;;5050147;28;20044;-73
2022/06/01 04:25:14;;;;;;;6.13;2.05;;;;;;;;;;5050397;28;20059;-73
2022/06/01 04:27:39;;;;;;;;;;;;;;;;;;5049999;28;20025;-72
2022/06/01 04:30:11;;;;;;;5.65;2.20;;;;;;;;;;5050269;28;19967;-74
2022/06/01 04:32:36;;;;;;;8.48;1.98;;;;;;;;;;5050684;28;20067;-73
2022/06/01 04:35:03;;;;;;;5.10;2.10;;;;;;;;;;5050526;28;20435;-72
2022/06/01 04:37:28;;;;;;;4.50;2.00;;;;;;;;;;5050342;28;20017;-74
2022/06/01 04:39:54;;;;;;;3.83;1.77;;;;;;;;;;5050004;28;20029;-72
2022/06/01 04:42:19;;;;;;;6.75;2.33;;;;;;;;;;5050111;28;20068;-72
2022/06/01 04:44:46;;;;;;;6.30;2.22;;;;;;;;;;5050117;28;20033;-72
2022/06/01 04:47:11;;;;;;;6.13;2.22;;;;;;;;;;5050127;28;20029;-68
2022/06/01 04:49:37;;;;;;;5.88;2.22;;;;;;;;;;5050007;28;20033;-71
2022/06/01 04:52:03;;;;;;;5.90;1.80;;;;;;;;;;5050132;28;20029;-72
2022/06/01 04:54:29;;;;;;;4.38;2.00;;;;;;;;;;5050021;28;20038;-72
2022/06/01 04:56:54;;;;;;;4.53;1.95;;;;;;;;;;5049964;28;20029;-73
2022/06/01 04:59:19;;;;;;;5.80;1.88;;;;;;;;;;5050105;28;20021;-73
2022/06/01 05:01:45;;;;;;;6.35;2.05;;;;;;;;;;5049686;28;20465;-72
2022/06/01 05:04:11;;;;;;;6.15;1.92;;;;;;;;;;5050147;28;20028;-72
2022/06/01 05:06:36;;;;;;;7.20;2.17;;;;;;;;;;5049443;28;20058;-71
2022/06/01 05:09:02;;;;;;;5.55;1.75;;;;;;;;;;5050007;28;20516;-74
2022/06/01 05:11:28;;;;;;;5.40;2.10;;;;;;;;;;5049702;28;20029;-74
2022/06/01 05:13:53;;;;;;;6.03;2.03;;;;;;;;;;5049675;28;20021;-72
2022/06/01 05:16:19;;;;;;;7.63;1.80;;;;;;;;;;5049734;28;20033;-70
2022/06/01 05:18:44;;;;;;;6.75;1.83;;;;;;;;;;5049600;28;20033;-74
2022/06/01 05:21:10;;;;;;;7.50;2.15;;;;;;;;;;5048987;28;20072;-74
2022/06/01 05:23:35;;;;;;;8.10;1.92;;;;;;;;;;5049875;28;20029;-73
2022/06/01 05:26:02;;;;;;;6.97;2.28;;;;;;;;;;5049669;28;20469;-74
2022/06/01 05:28:30;;;;;;;6.68;1.83;;;;;;;;;;5049623;28;20048;-72
2022/06/01 05:30:59;;;;;;;7.47;2.15;;;;;;;;;;5049449;28;20036;-73
2022/06/01 05:33:25;;;;;;;4.20;2.00;;;;;;;;;;5049538;28;20043;-72
2022/06/01 05:35:51;;;;;;;6.30;1.83;;;;;;;;;;5049341;28;20536;-72
2022/06/01 05:38:16;;;;;;;7.38;2.15;;;;;;;;;;5051052;28;20028;-74
2022/06/01 05:40:41;;;;;;;7.60;1.88;;;;;;;;;;5053442;28;20029;-73
2022/06/01 05:43:10;;;;;;;6.50;2.25;;;;;;;;;;5053536;28;20024;-71
2022/06/01 05:45:35;;;;;;;5.18;1.92;;;;;;;;;;5053286;28;20028;-73
2022/06/01 05:48:01;;;;;;;4.55;1.80;;;;;;;;;;5053280;28;20021;-72
2022/06/01 05:50:26;;;;;;;6.25;1.83;;;;;;;;;;5052872;28;20039;-70
2022/06/01 05:52:52;;;;;;;6.20;2.20;;;;;;;;;;5052910;28;20481;-72
2022/06/01 05:55:17;;;;;;;8.25;2.22;;;;;;;;;;5053250;28;20098;-67
2022/06/01 05:57:43;;;;;;;7.40;2.15;;;;;;;;;;5053163;28;20473;-69
2022/06/01 06:00:10;;;;;;;7.70;2.05;;;;;;;;;;5053028;28;20477;-70
2022/06/01 06:02:36;;;;;;;5.45;2.10;;;;;;;;;;5053379;28;20017;-66
2022/06/01 06:05:03;;;;;;;7.82;2.40;;;;;;;;;;5053344;28;20112;-68
2022/06/01 06:07:28;;;;;;;5.03;2.00;;;;;;;;;;5052779;28;20400;-68
2022/06/01 06:09:54;;;;;;;7.30;2.20;;;;;;;;;;5052841;28;20488;-73
2022/06/01 06:12:20;;;;;;;8.57;2.20;;;;;;;;;;5052745;28;20029;-68
2022/06/01 06:14:46;;;;;;;7.65;2.50;;;;;;;;;;5053186;28;20028;-71
2022/06/01 06:17:12;;;;;;;5.95;2.50;;;;;;;;;;5052899;28;20090;-67
2022/06/01 06:19:38;;;;;;;4.90;2.47;;;;;;;;;;5052862;28;20029;-67
2022/06/01 06:22:06;;;;;;;4.75;2.15;;;;;;;;;;5052373;28;20045;-71
2022/06/01 06:24:32;;;;;;;7.90;2.53;;;;;;;;;;5052715;28;20606;-67
2022/06/01 06:26:58;;;;;;;9.85;2.70;;;;;;;;;;5052779;28;20055;-67
2022/06/01 06:29:23;;;;;;;5.57;2.50;;;;;;;;;;5052512;28;20469;-67
2022/06/01 06:31:49;;;;;;;7.25;2.30;;;;;;;;;;5052460;28;20029;-65
2022/06/01 06:34:16;;;;;;;7.88;2.75;;;;;;;;;;5052455;28;20438;-68
2022/06/01 06:36:44;;;;;;;5.13;2.55;;;;;;;;;;5052692;28;20040;-73
2022/06/01 06:39:10;;;;;;;7.82;2.47;;;;;;;;;;5052560;28;20033;-72
2022/06/01 06:41:35;;;;;;;7.32;2.55;;;;;;;;;;5051872;28;20086;-73
2022/06/01 06:44:01;;;;;;;5.80;2.17;;;;;;;;;;5052278;28;20025;-74
2022/06/01 06:46:26;;;;;;;8.35;2.45;;;;;;;;;;5051969;28;20029;-73
2022/06/01 06:48:52;;;;;;;6.22;2.40;;;;;;;;;;5051557;28;20044;-73
2022/06/01 06:51:19;;;;;;;5.63;2.50;;;;;;;;;;5051100;28;20493;-73
2022/06/01 06:53:45;;;;;;;6.05;2.60;;;;;;;;;;5052041;28;20043;-73
2022/06/01 06:56:11;;;;;;;6.95;2.53;;;;;;;;;;5051976;28;20537;-73
2022/06/01 06:58:37;;;;;;;9.95;2.50;;;;;;;;;;5051963;28;20052;-74
2022/06/01 07:01:03;;;;;;;5.78;2.65;;;;;;;;;;5051758;28;20461;-73
2022/06/01 07:03:29;;;;;;;5.93;2.60;;;;;;;;;;5051976;28;20036;-73
2022/06/01 07:06:11;;;;;;;5.65;2.30;;;;;;;;;;5051688;28;20120;-73
2022/06/01 07:08:43;;;;;;;7.43;2.65;;;;;;;;;;5051781;28;20029;-73
2022/06/01 07:11:09;;;;;;;7.50;2.50;;;;;;;;;;5051896;28;20025;-73
2022/06/01 07:13:35;;;;;;;6.10;2.55;;;;;;;;;;5051762;28;20099;-72
2022/06/01 07:16:03;;;;;;;8.25;2.58;;;;;;;;;;5051545;28;20029;-73
2022/06/01 07:18:29;;;;;;;7.82;2.60;;;;;;;;;;5051355;28;20066;-72
2022/06/01 07:20:54;;;;;;;8.98;2.80;;;;;;;;;;5050937;28;20025;-73
2022/06/01 07:23:20;;;;;;;8.43;2.60;;;;;;;;;;5051438;28;20028;-72
2022/06/01 07:25:45;;;;;;;9.82;2.67;;;;;;;;;;5051715;28;20029;-73
2022/06/01 07:28:11;;;;;;;8.45;2.53;;;;;;;;;;5051463;28;20150;-73
2022/06/01 07:30:36;;;;;;;8.00;2.67;;;;;;;;;;5051336;28;20037;-73
2022/06/01 07:33:01;;;;;;;5.75;2.58;;;;;;;;;;5051269;28;20032;-73
2022/06/01 07:35:27;;;;;;;7.07;2.50;;;;;;;;;;5051246;28;20037;-72
2022/06/01 07:43:22;;;;;;;5.13;2.63;;;;;;;;;;5051393;28;20028;-73
2022/06/01 07:45:49;;;;;;;9.98;2.30;;;;;;;;;;5050978;28;20029;-73
2022/06/01 07:48:16;;;;;;;7.90;2.50;;;;;;;;;;5050932;28;20029;-73
2022/06/01 07:50:42;;;;;;;7.20;2.78;;;;;;;;;;5050726;28;20094;-74
2022/06/01 07:53:08;;;;;;;5.30;2.35;;;;;;;;;;5050641;28;20480;-73
2022/06/01 07:55:35;;;;;;;11.05;2.60;;;;;;;;;;5050861;28;20401;-73
2022/06/01 07:58:01;;;;;;;5.35;2.33;;;;;;;;;;5050984;28;20082;-73
2022/06/01 08:00:27;;;;;;;6.60;2.50;;;;;;;;;;5050690;28;20029;-73
2022/06/01 08:02:53;;;;;;;5.07;2.50;;;;;;;;;;5050727;28;20025;-73
2022/06/01 08:05:21;;;;;;;9.73;2.75;;;;;;;;;;5050781;28;20017;-73
2022/06/01 08:07:46;;;;;;;9.00;2.70;;;;;;;;;;5050405;28;20029;-74
2022/06/01 08:10:14;;;;;;;7.80;2.33;;;;;;;;;;5050542;28;20075;-73
2022/06/01 08:15:26;;;;;;;7.53;2.50;;;;;;;;;;5050787;28;20028;-73
2022/06/01 08:17:52;;;;;;;7.20;2.78;;;;;;;;;;5050574;28;20060;-74
2022/06/01 08:20:17;;;;;;;5.97;2.40;;;;;;;;;;5050439;28;20420;-73
2022/06/01 08:22:44;;;;;;;6.90;2.60;;;;;;;;;;5050028;28;20496;-72
2022/06/01 08:25:13;;;;;;;7.88;2.53;;;;;;;;;;5050399;28;20103;-71
2022/06/01 08:27:39;;;;;;;7.78;2.80;;;;;;;;;;5050195;28;20115;-72
2022/06/01 08:30:06;;;;;;;9.98;2.80;;;;;;;;;;5050271;28;20468;-69
2022/06/01 08:32:32;;;;;;;6.43;2.60;;;;;;;;;;5049992;28;20056;-73
2022/06/01 08:34:57;;;;;;;8.45;2.75;;;;;;;;;;5050235;28;20033;-72
2022/06/01 08:37:23;;;;;;;11.23;2.53;;;;;;;;;;5050063;28;20025;-72
2022/06/01 08:39:48;;;;;;;6.95;2.50;;;;;;;;;;5050606;28;20090;-73
2022/06/01 08:42:19;;;;;;;7.72;2.80;;;;;;;;;;5050116;28;20028;-73
2022/06/01 08:44:46;;;;;;;8.00;3.05;;;;;;;;;;5050343;28;20021;-72
2022/06/01 08:47:27;;;;;;;6.90;2.55;;;;;;;;;;5049716;28;20061;-70
2022/06/01 08:49:56;;;;;;;10.63;3.03;;;;;;;;;;5050333;28;20020;-73
2022/06/01 08:52:23;;;;;;;11.20;2.92;;;;;;;;;;5049624;28;20114;-73
2022/06/01 08:54:48;;;;;;;9.32;2.97;;;;;;;;;;5050009;28;20391;-72
2022/06/01 08:57:22;;;;;;;8.30;2.70;;;;;;;;;;5049881;28;20461;-73
2022/06/01 09:00:11;;;;;;;6.57;2.95;;;;;;;;;;5049879;28;20061;-72
2022/06/01 09:02:36;;;;;;;8.65;2.90;;;;;;;;;;5049607;28;20152;-73
2022/06/01 09:05:09;;;;;;;9.40;2.67;;;;;;;;;;5049502;28;20436;-73
2022/06/01 09:07:59;;;;;;;10.63;3.20;;;;;;;;;;5049425;28;20025;-72
2022/06/01 09:10:46;;;;;;;5.55;2.90;;;;;;;;;;5049596;28;20394;-73
2022/06/01 09:13:23;;;;;;;8.02;2.60;;;;;;;;;;5049399;28;20025;-73
2022/06/01 09:15:54;;;;;;;8.38;2.50;;;;;;;;;;5049674;28;20109;-73
2022/06/01 09:18:23;;;;;;;9.63;3.10;;;;;;;;;;5049770;28;20023;-73
2022/06/01 09:23:32;;;;;;;7.68;2.72;;;;;;;;;;5049594;28;20444;-72
2022/06/01 09:25:58;;;;;;;6.35;2.60;;;;;;;;;;5049457;28;20481;-71
2022/06/01 09:28:26;;;;;;;8.65;2.80;;;;;;;;;;5049895;28;20552;-71
2022/06/01 09:31:18;;;;;;;7.57;2.80;;;;;;;;;;5049461;28;20400;-73
2022/06/01 09:33:44;;;;;;;9.50;2.97;;;;;;;;;;5049525;28;20036;-73
2022/06/01 09:36:09;;;;;;;7.85;2.50;;;;;;;;;;5049271;28;20029;-70
2022/06/01 09:38:41;;;;;;;7.25;2.50;;;;;;;;;;5049580;28;20112;-72
2022/06/01 09:41:22;;;;;;;10.20;2.67;;;;;;;;;;5049212;28;20048;-72
2022/06/01 09:44:01;;;;;;;8.93;2.40;;;;;;;;;;5047867;28;20076;-70
2022/06/01 09:46:34;;;;;;;7.55;2.78;;;;;;;;;;5049465;28;20061;-72
2022/06/01 09:49:04;;;;;;;5.15;2.40;;;;;;;;;;5049495;28;20040;-72
2022/06/01 09:51:32;;;;;;;10.27;2.65;;;;;;;;;;5049014;28;20025;-73
2022/06/01 09:54:25;;;;;;;8.27;2.50;;;;;;;;;;5049150;28;20539;-74
2022/06/01 09:56:51;;;;;;;5.72;2.60;;;;;;;;;;5049339;28;20334;-72
2022/06/01 10:07:49;;;;;;;5.03;2.60;;;;;;;;;;5049319;28;20083;-74
2022/06/01 10:10:25;;;;;;;5.95;2.38;;;;;;;;;;5049193;28;20017;-73
2022/06/01 10:12:54;;;;;;;7.30;2.42;;;;;;;;;;5048876;28;20051;-74
2022/06/01 10:15:25;;;;;;;6.68;2.80;;;;;;;;;;5048990;28;20021;-73
2022/06/01 10:18:00;;;;;;;3.95;2.45;;;;;;;;;;5049166;28;20081;-72
2022/06/01 10:20:32;;;;;;;7.20;2.50;;;;;;;;;;5049211;28;20259;-73
2022/06/01 10:23:04;;;;;;;7.13;2.42;;;;;;;;;;5048777;28;20060;-73
2022/06/01 10:26:05;;;;;;;6.53;2.60;;;;;;;;;;5050721;28;20426;-72
2022/06/01 10:28:39;;;;;;;5.32;2.50;;;;;;;;;;5047030;28;20037;-71
2022/06/01 10:31:17;;;;;;;6.10;2.42;;;;;;;;;;5058270;28;20033;-70
2022/06/01 10:33:52;;;;;;;6.70;2.55;;;;;;;;;;5057455;28;20033;-73
2022/06/01 10:36:43;;;;;;;6.68;2.45;;;;;;;;;;5057798;28;20115;-71
2022/06/01 10:39:28;;;;;;;6.00;2.40;;;;;;;;;;5057660;28;20249;-72
2022/06/01 10:42:06;;;;;;;4.85;2.50;;;;;;;;;;5057578;28;20029;-69
2022/06/01 10:44:52;;;;;;;9.40;2.40;;;;;;;;;;5057463;28;20021;-71
2022/06/01 10:47:25;;;;;;;4.82;2.60;;;;;;;;;;5056883;28;20029;-72
2022/06/01 10:50:04;;;;;;;6.05;2.40;;;;;;;;;;5056803;28;20053;-70
2022/06/01 10:52:34;;;;;;;6.15;2.60;;;;;;;;;;5055581;28;20021;-71
2022/06/01 10:55:03;;;;;;;5.10;2.45;;;;;;;;;;5052607;28;20028;-72
2022/06/01 10:57:28;;;;;;;7.93;2.45;;;;;;;;;;5052095;28;20086;-71
2022/06/01 10:59:54;;;;;;;9.50;2.30;;;;;;;;;;5052204;28;20021;-72
2022/06/01 11:02:28;;;;;;;6.40;2.20;;;;;;;;;;5051798;28;20017;-71
2022/06/01 11:05:19;;;;;;;8.52;2.30;;;;;;;;;;5051547;28;20023;-69
2022/06/01 11:08:04;;;;;;;;;;;;;;;;;;5052045;28;20028;-71
2022/06/01 11:10:39;;;;;;;5.18;2.10;;;;;;;;;;5030317;28;19968;-73
2022/06/01 11:13:16;;;;;;;6.57;2.10;;;;;;;;;;5051943;28;20025;-72
2022/06/01 11:15:59;;;;;;;5.03;2.38;;;;;;;;;;5051943;28;20039;-73
2022/06/01 11:18:36;;;;;;;5.45;2.10;;;;;;;;;;5051708;28;20057;-72
2022/06/01 11:21:35;;;;;;;6.43;2.70;;;;;;;;;;5051185;28;20490;-73
2022/06/01 11:24:13;;;;;;;5.20;2.10;;;;;;;;;;5051608;28;20025;-72
2022/06/01 11:27:18;;;;;;;7.88;2.33;;;;;;;;;;5051449;28;20075;-69
2022/06/01 11:30:05;;;;;;;5.55;2.15;;;;;;;;;;5050799;28;20040;-73
2022/06/01 11:32:52;;;;;;;7.82;2.40;;;;;;;;;;5051265;28;20051;-72
2022/06/01 11:35:49;;;;;;;6.18;1.90;;;;;;;;;;5050967;28;20031;-72
2022/06/01 11:38:26;;;;;;;8.18;2.10;;;;;;;;;;5051579;28;20271;-71
2022/06/01 11:41:16;;;;;;;8.48;2.10;;;;;;;;;;5051119;28;20028;-72
2022/06/01 11:43:47;;;;;;;4.80;2.15;;;;;;;;;;5050916;28;20033;-70
2022/06/01 11:46:39;;;;;;;5.82;2.00;;;;;;;;;;5051134;28;20532;-73
2022/06/01 11:49:14;;;;;;;6.35;2.00;;;;;;;;;;5046246;28;20033;-71
2022/06/01 11:51:49;;;;;;;4.05;1.90;;;;;;;;;;5051002;28;20059;-73
2022/06/01 11:54:35;;;;;;;4.55;2.00;;;;;;;;;;5051075;28;20025;-71
2022/06/01 11:57:16;;;;;;;5.07;2.15;;;;;;;;;;5050973;28;20076;-72
2022/06/01 11:59:51;;;;;;;5.20;1.80;;;;;;;;;;5050689;28;20021;-72
2022/06/01 12:02:50;;;;;;;5.50;2.08;;;;;;;;;;5050763;28;20056;-72
2022/06/01 12:05:27;;;;;;;7.32;1.90;;;;;;;;;;5051032;28;20036;-72
2022/06/01 12:08:07;;;;;;;7.47;1.98;;;;;;;;;;5050708;28;20112;-72
2022/06/01 12:11:00;;;;;;;8.33;2.10;;;;;;;;;;5050761;28;20558;-73
2022/06/01 12:13:31;;;;;;;5.45;1.92;;;;;;;;;;5050420;28;20032;-73
2022/06/01 12:16:17;;;;;;;9.10;2.13;;;;;;;;;;5050476;28;20481;-72
2022/06/01 12:19:12;;;;;;;6.97;1.98;;;;;;;;;;5050484;28;20033;-74
2022/06/01 12:21:44;;;;;;;7.35;2.15;;;;;;;;;;5042777;28;20045;-71
2022/06/01 12:30:15;;;;;;;6.13;2.20;;;;;;;;;;5050512;28;20043;-71
2022/06/01 12:32:59;;;;;;;9.38;2.03;;;;;;;;;;5049915;28;20036;-71
2022/06/01 12:35:29;;;;;;;5.50;2.10;;;;;;;;;;5049938;28;20537;-71
2022/06/01 12:38:00;;;;;;;8.32;2.10;;;;;;;;;;5049910;28;20480;-72
2022/06/01 12:40:27;;;;;;;4.65;1.92;;;;;;;;;;5050343;28;20234;-70
2022/06/01 12:42:55;;;;;;;12.70;2.08;;;;;;;;;;5049864;28;20037;-73
2022/06/01 12:45:25;;;;;;;7.40;2.00;;;;;;;;;;5050264;28;20021;-71
2022/06/01 12:47:53;;;;;;;;;;;;;;;;;;5049625;28;20029;-72
2022/06/01 12:50:22;;;;;;;5.85;1.92;;;;;;;;;;5049963;28;19966;-70
2022/06/01 12:52:48;;;;;;;9.10;2.25;;;;;;;;;;5049617;28;20024;-72
2022/06/01 12:55:22;;;;;;;10.95;1.90;;;;;;;;;;5049740;28;20025;-72
2022/06/01 12:57:54;;;;;;;8.57;2.03;;;;;;;;;;5048436;28;20062;-73
2022/06/01 13:00:36;;;;;;;6.82;1.85;;;;;;;;;;5050026;28;20060;-72
2022/06/01 13:03:10;;;;;;;5.75;2.22;;;;;;;;;;5049711;28;20473;-72
2022/06/01 13:05:56;;;;;;;8.13;2.20;;;;;;;;;;5049603;28;20037;-73
2022/06/01 13:08:32;;;;;;;5.25;2.03;;;;;;;;;;5049615;28;20029;-72
2022/06/01 13:11:26;;;;;;;6.10;2.08;;;;;;;;;;5049645;28;20454;-71
2022/06/01 13:13:51;;;;;;;5.63;2.15;;;;;;;;;;5049501;28;20048;-72
2022/06/01 13:16:21;;;;;;;6.35;1.90;;;;;;;;;;5049774;28;20052;-72
2022/06/01 13:18:47;;;;;;;7.70;2.10;;;;;;;;;;5049933;28;20037;-72
2022/06/01 13:21:30;;;;;;;11.13;2.30;;;;;;;;;;5049486;28;20374;-72
2022/06/01 13:24:00;;;;;;;7.68;2.10;;;;;;;;;;5049487;28;20392;-71
2022/06/01 13:26:45;;;;;;;9.07;2.17;;;;;;;;;;5049578;28;20086;-72
2022/06/01 13:29:36;;;;;;;6.55;2.03;;;;;;;;;;5049067;28;20064;-71
2022/06/01 13:32:08;;;;;;;6.97;1.98;;;;;;;;;;5049507;28;20090;-73
2022/06/01 13:34:44;;;;;;;6.63;2.17;;;;;;;;;;5049767;28;20264;-72
2022/06/01 13:37:24;;;;;;;7.22;2.10;;;;;;;;;;5049415;28;20158;-73
2022/06/01 13:39:55;;;;;;;10.02;2.10;;;;;;;;;;5049623;28;20037;-73
2022/06/01 13:42:50;;;;;;;7.20;2.53;;;;;;;;;;5049270;28;20029;-72
2022/06/01 13:45:22;;;;;;;7.40;1.77;;;;;;;;;;5046851;28;20052;-73
2022/06/01 13:47:50;;;;;;;5.88;2.00;;;;;;;;;;5049191;28;20159;-73
2022/06/01 13:50:16;;;;;;;6.57;2.10;;;;;;;;;;5049649;28;20021;-73
2022/06/01 13:52:53;;;;;;;6.47;2.08;;;;;;;;;;5049390;28;20048;-73
2022/06/01 13:55:22;;;;;;;6.43;2.30;;;;;;;;;;5048972;28;20021;-72
2022/06/01 13:57:50;;;;;;;6.05;2.08;;;;;;;;;;5049579;28;20083;-72
2022/06/01 14:00:32;;;;;;;6.72;2.33;;;;;;;;;;5052367;28;20032;-71
2022/06/01 14:03:22;;;;;;;5.43;2.13;;;;;;;;;;5053107;28;20029;-73
2022/06/01 14:06:01;;;;;;;4.68;2.25;;;;;;;;;;5052914;28;20035;-73
2022/06/01 14:08:32;;;;;;;10.43;2.15;;;;;;;;;;5052965;28;20063;-72
2022/06/01 14:11:03;;;;;;;7.32;2.10;;;;;;;;;;5053116;28;20108;-73
2022/06/01 14:13:34;;;;;;;9.23;2.30;;;;;;;;;;5052850;28;20044;-72
2022/06/01 14:16:00;;;;;;;8.05;2.00;;;;;;;;;;5052990;28;20025;-72
2022/06/01 14:18:33;;;;;;;8.45;1.92;;;;;;;;;;5053038;28;20025;-71
2022/06/01 14:20:59;;;;;;;7.15;1.95;;;;;;;;;;5052349;28;20025;-74
2022/06/01 14:23:25;;;;;;;7.75;2.08;;;;;;;;;;5052582;28;20051;-73
2022/06/01 14:28:43;;;;;;;7.32;2.10;;;;;;;;;;5052713;28;20036;-70
2022/06/01 14:31:14;;;;;;;10.20;2.35;;;;;;;;;;5052556;28;20030;-72
2022/06/01 14:33:41;;;;;;;8.20;2.20;;;;;;;;;;5052494;28;20037;-70
2022/06/01 14:36:08;;;;;;;7.10;1.95;;;;;;;;;;5052498;28;20033;-73
2022/06/01 14:38:34;;;;;;;6.10;2.10;;;;;;;;;;5052384;28;20497;-72
2022/06/01 14:41:03;;;;;;;5.15;2.05;;;;;;;;;;5052814;28;20033;-68
2022/06/01 14:43:34;;;;;;;3.83;1.73;;;;;;;;;;5052276;28;20036;-73
2022/06/01 14:45:59;;;;;;;6.82;1.90;;;;;;;;;;5052496;28;20483;-66
2022/06/01 14:48:25;;;;;;;8.25;1.92;;;;;;;;;;5052212;28;20029;-73
2022/06/01 14:50:50;;;;;;;10.45;2.10;;;;;;;;;;5052307;28;20036;-73
2022/06/01 14:53:27;;;;;;;10.32;1.90;;;;;;;;;;5052063;28;20013;-73
2022/06/01 14:55:53;;;;;;;7.45;2.05;;;;;;;;;;5051996;28;20029;-73
2022/06/01 14:58:19;;;;;;;6.55;1.90;;;;;;;;;;5052186;28;20037;-73
2022/06/01 15:00:48;;;;;;;9.35;2.15;;;;;;;;;;5052153;28;20086;-73
2022/06/01 15:03:18;;;;;;;7.10;2.00;;;;;;;;;;5052163;28;20029;-73
2022/06/01 15:05:43;;;;;;;6.60;2.20;;;;;;;;;;5051793;28;20067;-73
2022/06/01 15:08:09;;;;;;;7.53;1.90;;;;;;;;;;5052530;28;20279;-73
2022/06/01 15:10:34;;;;;;;6.07;2.10;;;;;;;;;;5051032;28;20331;-69
2022/06/01 15:13:00;;;;;;;8.13;2.10;;;;;;;;;;5052017;28;20078;-72
2022/06/01 15:15:26;;;;;;;8.45;2.17;;;;;;;;;;5051762;28;20033;-71
2022/06/01 15:17:52;;;;;;;8.43;2.20;;;;;;;;;;5051613;28;20033;-73
2022/06/01 15:20:17;;;;;;;7.10;1.85;;;;;;;;;;5051760;28;20104;-72
2022/06/01 15:22:43;;;;;;;6.20;1.80;;;;;;;;;;5051513;28;20068;-74
2022/06/01 15:25:09;;;;;;;9.05;2.13;;;;;;;;;;5051417;28;20481;-74
2022/06/01 15:27:36;;;;;;;7.57;1.83;;;;;;;;;;5051761;28;20029;-73
2022/06/01 15:41:04;;;;;;;10.13;2.05;;;;;;;;;;5051627;28;20179;-73
2022/06/01 15:43:30;;;;;;;6.55;1.98;;;;;;;;;;5051175;28;20104;-72
2022/06/01 15:45:56;;;;;;;7.10;2.00;;;;;;;;;;5050938;28;20032;-72